createdAt,value
2022-12-08T00:00:21.308Z,14.68
2022-12-08T00:01:22.282Z,16.20
2022-12-08T00:02:16.349Z,14.85
2022-12-08T00:03:10.558Z,14.93
2022-12-08T00:04:05.313Z,17.06
2022-12-08T00:05:06.684Z,15.35
2022-12-08T00:06:14.332Z,15.09
2022-12-08T00:07:13.348Z,14.91
2022-12-08T00:08:11.971Z,15.00
2022-12-08T00:09:12.312Z,16.27
2022-12-08T00:09:52.339Z,15.24
2022-12-08T00:10:49.458Z,14.20
2022-12-08T00:11:30.347Z,14.52
2022-12-08T00:12:23.316Z,16.35
2022-12-08T00:13:03.381Z,17.16
2022-12-08T00:13:44.345Z,15.76
2022-12-08T00:14:24.434Z,15.00
2022-12-08T00:15:05.549Z,14.14
2022-12-08T00:15:46.276Z,14.32
2022-12-08T00:16:20.414Z,14.23
2022-12-08T00:17:08.401Z,16.25
2022-12-08T00:17:42.399Z,16.58
2022-12-08T00:18:29.264Z,13.41
2022-12-08T00:19:03.364Z,14.56
2022-12-08T00:19:51.294Z,15.96
2022-12-08T00:20:25.409Z,15.46
2022-12-08T00:21:06.333Z,14.56
2022-12-08T00:21:46.361Z,15.26
2022-12-08T00:22:26.314Z,15.30
2022-12-08T00:23:06.370Z,13.50
2022-12-08T00:23:46.279Z,14.94
2022-12-08T00:24:27.330Z,17.80
2022-12-08T00:25:08.252Z,16.54
2022-12-08T00:25:48.338Z,15.77
2022-12-08T00:26:29.267Z,16.19
2022-12-08T00:27:09.323Z,15.65
2022-12-08T00:27:50.277Z,16.48
2022-12-08T00:28:30.357Z,16.64
2022-12-08T00:29:17.047Z,14.11
2022-12-08T00:29:57.309Z,13.95
2022-12-08T00:30:38.264Z,14.43
2022-12-08T00:31:19.518Z,13.34
2022-12-08T00:32:00.358Z,13.01
2022-12-08T00:32:54.289Z,12.91
2022-12-08T00:33:48.248Z,13.24
2022-12-08T00:34:42.304Z,12.96
2022-12-08T00:35:41.528Z,12.40
2022-12-08T00:36:37.296Z,12.05
2022-12-08T00:37:24.283Z,13.48
2022-12-08T00:38:00.945Z,13.63
2022-12-08T00:38:49.282Z,14.82
2022-12-08T00:39:24.432Z,15.31
2022-12-08T00:40:12.268Z,14.86
2022-12-08T00:40:53.628Z,16.51
2022-12-08T00:41:59.342Z,16.00
2022-12-08T00:42:40.354Z,16.39
2022-12-08T00:43:34.268Z,18.01
2022-12-08T00:44:31.245Z,18.23
2022-12-08T00:45:26.298Z,16.76
2022-12-08T00:46:20.326Z,17.67
2022-12-08T00:47:14.235Z,16.09
2022-12-08T00:48:01.299Z,16.96
2022-12-08T00:48:35.318Z,15.05
2022-12-08T00:49:23.220Z,15.00
2022-12-08T00:49:57.347Z,15.44
2022-12-08T00:50:45.235Z,16.64
2022-12-08T00:51:19.398Z,15.68
2022-12-08T00:52:07.243Z,16.11
2022-12-08T00:52:41.355Z,18.08
2022-12-08T00:53:22.334Z,14.96
2022-12-08T00:54:02.360Z,15.94
2022-12-08T00:54:42.247Z,15.27
2022-12-08T00:55:22.330Z,15.98
2022-12-08T00:56:02.216Z,15.94
2022-12-08T00:56:42.325Z,15.35
2022-12-08T00:57:23.218Z,14.95
2022-12-08T00:58:03.329Z,14.94
2022-12-08T00:58:43.372Z,15.41
2022-12-08T00:59:23.291Z,15.61
2022-12-08T01:00:04.470Z,15.59
2022-12-08T01:00:48.443Z,16.11
2022-12-08T01:01:29.237Z,16.21
2022-12-08T01:02:10.301Z,16.27
2022-12-08T01:02:50.286Z,15.26
2022-12-08T01:03:30.537Z,15.55
2022-12-08T01:04:22.275Z,16.35
2022-12-08T01:05:02.310Z,16.40
2022-12-08T01:05:42.259Z,13.26
2022-12-08T01:06:22.288Z,14.66
2022-12-08T01:07:03.322Z,12.90
2022-12-08T01:07:43.514Z,12.70
2022-12-08T01:08:23.288Z,12.44
2022-12-08T01:09:03.298Z,12.51
2022-12-08T01:09:43.207Z,11.56
2022-12-08T01:10:23.324Z,11.25
2022-12-08T01:11:04.258Z,12.00
2022-12-08T01:11:45.354Z,11.35
2022-12-08T01:12:26.214Z,11.65
2022-12-08T01:13:06.362Z,12.44
2022-12-08T01:13:47.251Z,12.02
2022-12-08T01:14:27.384Z,12.49
2022-12-08T01:15:07.214Z,12.48
2022-12-08T01:15:47.289Z,11.34
2022-12-08T01:16:31.250Z,12.50
2022-12-08T01:17:11.358Z,11.61
2022-12-08T01:17:51.220Z,12.45
2022-12-08T01:18:31.323Z,12.10
2022-12-08T01:19:11.258Z,11.86
2022-12-08T01:19:51.255Z,12.34
2022-12-08T01:20:31.240Z,12.18
2022-12-08T01:21:14.441Z,12.24
2022-12-08T01:21:55.225Z,12.70
2022-12-08T01:22:36.044Z,12.96
2022-12-08T01:23:16.213Z,11.99
2022-12-08T01:23:58.028Z,12.25
2022-12-08T01:24:39.208Z,13.06
2022-12-08T01:25:19.436Z,13.84
2022-12-08T01:26:00.243Z,14.18
2022-12-08T01:26:40.315Z,13.60
2022-12-08T01:27:23.187Z,13.04
2022-12-08T01:28:03.295Z,12.77
2022-12-08T01:28:43.175Z,13.80
2022-12-08T01:29:23.261Z,13.13
2022-12-08T01:30:03.519Z,12.75
2022-12-08T01:30:47.354Z,12.85
2022-12-08T01:31:29.274Z,16.33
2022-12-08T01:32:09.440Z,18.25
2022-12-08T01:32:50.221Z,15.55
2022-12-08T01:33:31.372Z,13.36
2022-12-08T01:34:12.187Z,15.09
2022-12-08T01:34:53.389Z,16.39
2022-12-08T01:35:34.221Z,16.31
2022-12-08T01:36:16.250Z,15.50
2022-12-08T01:36:56.232Z,13.89
2022-12-08T01:37:36.236Z,13.64
2022-12-08T01:38:17.211Z,15.16
2022-12-08T01:38:58.295Z,16.83
2022-12-08T01:39:39.206Z,15.09
2022-12-08T01:40:19.308Z,14.77
2022-12-08T01:40:59.255Z,16.02
2022-12-08T01:41:43.585Z,16.15
2022-12-08T01:42:30.184Z,14.75
2022-12-08T01:43:10.307Z,13.88
2022-12-08T01:44:15.191Z,13.55
2022-12-08T01:45:08.282Z,14.02
2022-12-08T01:45:48.254Z,14.40
2022-12-08T01:46:29.402Z,13.56
2022-12-08T01:47:09.199Z,11.75
2022-12-08T01:47:52.278Z,11.71
2022-12-08T01:48:33.261Z,12.48
2022-12-08T01:49:38.260Z,12.10
2022-12-08T01:50:15.258Z,11.05
2022-12-08T01:51:03.204Z,11.69
2022-12-08T01:51:42.283Z,11.98
2022-12-08T01:52:36.175Z,12.70
2022-12-08T01:53:35.335Z,12.01
2022-12-08T01:54:29.200Z,11.98
2022-12-08T01:55:49.193Z,10.99
2022-12-08T01:57:14.164Z,11.00
2022-12-08T01:58:14.190Z,10.90
2022-12-08T01:58:57.207Z,12.79
2022-12-08T01:59:41.436Z,11.56
2022-12-08T02:00:25.177Z,11.90
2022-12-08T02:01:05.342Z,11.90
2022-12-08T02:01:46.279Z,12.63
2022-12-08T02:02:27.310Z,13.88
2022-12-08T02:03:11.183Z,13.64
2022-12-08T02:04:06.226Z,14.01
2022-12-08T02:05:00.191Z,14.04
2022-12-08T02:05:55.228Z,14.48
2022-12-08T02:06:54.205Z,14.65
2022-12-08T02:07:49.305Z,14.57
2022-12-08T02:08:45.200Z,14.54
2022-12-08T02:09:27.193Z,13.57
2022-12-08T02:10:07.359Z,11.85
2022-12-08T02:10:50.154Z,11.57
2022-12-08T02:11:30.239Z,10.75
2022-12-08T02:12:11.166Z,11.82
2022-12-08T02:12:51.315Z,12.23
2022-12-08T02:13:31.177Z,12.96
2022-12-08T02:14:14.216Z,11.13
2022-12-08T02:14:54.196Z,10.95
2022-12-08T02:15:56.387Z,11.77
2022-12-08T02:16:58.189Z,10.85
2022-12-08T02:18:12.199Z,10.54
2022-12-08T02:19:38.182Z,11.36
2022-12-08T02:20:29.163Z,10.56
2022-12-08T02:21:16.238Z,10.85
2022-12-08T02:22:39.167Z,11.79
2022-12-08T02:23:33.268Z,11.65
2022-12-08T02:24:41.163Z,10.49
2022-12-08T02:25:28.278Z,9.85
2022-12-08T02:27:09.169Z,10.63
2022-12-08T02:28:17.208Z,9.76
2022-12-08T02:29:46.257Z,9.29
2022-12-08T02:31:01.240Z,10.34
2022-12-08T02:32:37.148Z,9.73
2022-12-08T02:34:12.200Z,10.10
2022-12-08T02:35:14.164Z,10.10
2022-12-08T02:36:28.150Z,8.94
2022-12-08T02:37:35.141Z,9.38
2022-12-08T02:38:30.208Z,9.25
2022-12-08T02:39:34.256Z,9.74
2022-12-08T02:40:43.170Z,11.10
2022-12-08T02:41:38.374Z,12.04
2022-12-08T02:42:48.180Z,11.54
2022-12-08T02:43:34.180Z,9.41
2022-12-08T02:44:42.091Z,9.63
2022-12-08T02:45:52.245Z,10.73
2022-12-08T02:46:39.115Z,10.95
2022-12-08T02:47:23.180Z,11.23
2022-12-08T02:48:05.115Z,10.44
2022-12-08T02:48:45.258Z,10.76
2022-12-08T02:49:26.134Z,10.89
2022-12-08T02:50:08.335Z,11.27
2022-12-08T02:50:49.114Z,9.60
2022-12-08T02:51:29.155Z,11.06
2022-12-08T02:52:38.150Z,11.68
2022-12-08T02:53:25.115Z,11.35
2022-12-08T02:54:19.108Z,10.66
2022-12-08T02:55:20.161Z,11.11
2022-12-08T02:56:45.166Z,10.89
2022-12-08T02:57:54.304Z,10.66
2022-12-08T02:59:18.209Z,10.79
2022-12-08T03:00:12.178Z,12.65
2022-12-08T03:01:21.228Z,12.34
2022-12-08T03:02:33.236Z,11.30
2022-12-08T03:03:42.121Z,13.36
2022-12-08T03:04:57.162Z,11.80
2022-12-08T03:06:07.123Z,11.46
2022-12-08T03:07:19.141Z,12.44
2022-12-08T03:08:22.190Z,13.57
2022-12-08T03:09:47.122Z,12.44
2022-12-08T03:10:39.123Z,12.56
2022-12-08T03:11:31.135Z,11.82
2022-12-08T03:12:42.139Z,12.18
2022-12-08T03:13:32.163Z,12.95
2022-12-08T03:14:14.071Z,13.04
2022-12-08T03:14:59.196Z,11.21
2022-12-08T03:15:41.144Z,11.35
2022-12-08T03:16:27.207Z,11.82
2022-12-08T03:17:08.103Z,12.65
2022-12-08T03:17:54.324Z,12.57
2022-12-08T03:18:37.088Z,11.89
2022-12-08T03:19:26.201Z,10.82
2022-12-08T03:20:11.074Z,11.29
2022-12-08T03:21:00.127Z,12.63
2022-12-08T03:21:55.104Z,11.85
2022-12-08T03:22:49.125Z,12.20
2022-12-08T03:23:44.095Z,11.94
2022-12-08T03:24:38.175Z,11.84
2022-12-08T03:25:37.057Z,10.96
2022-12-08T03:26:43.099Z,12.27
2022-12-08T03:27:23.112Z,13.06
2022-12-08T03:28:11.099Z,12.31
2022-12-08T03:28:45.092Z,12.89
2022-12-08T03:29:32.312Z,13.69
2022-12-08T03:30:07.450Z,12.38
2022-12-08T03:30:56.227Z,13.07
2022-12-08T03:31:34.319Z,11.79
2022-12-08T03:32:46.084Z,11.36
2022-12-08T03:33:32.142Z,11.38
2022-12-08T03:34:13.104Z,10.86
2022-12-08T03:34:55.145Z,11.94
2022-12-08T03:35:39.071Z,10.88
2022-12-08T03:36:20.150Z,11.23
2022-12-08T03:37:01.049Z,11.39
2022-12-08T03:37:53.103Z,10.89
2022-12-08T03:38:56.046Z,10.79
2022-12-08T03:39:50.068Z,10.31
2022-12-08T03:40:44.055Z,9.74
2022-12-08T03:41:38.080Z,9.94
2022-12-08T03:42:32.050Z,9.85
2022-12-08T03:43:13.057Z,10.10
2022-12-08T03:44:00.133Z,10.43
2022-12-08T03:44:41.071Z,11.63
2022-12-08T03:45:21.556Z,10.46
2022-12-08T03:46:01.124Z,9.88
2022-12-08T03:46:41.275Z,10.66
2022-12-08T03:47:21.065Z,10.88
2022-12-08T03:48:01.120Z,11.79
2022-12-08T03:48:41.105Z,11.82
2022-12-08T03:49:21.078Z,10.02
2022-12-08T03:50:01.147Z,10.74
2022-12-08T03:50:41.071Z,11.56
2022-12-08T03:51:22.167Z,9.54
2022-12-08T03:52:02.192Z,10.40
2022-12-08T03:52:42.034Z,9.48
2022-12-08T03:53:22.275Z,10.09
2022-12-08T03:54:03.158Z,10.56
2022-12-08T03:54:43.179Z,10.15
2022-12-08T03:55:24.092Z,10.91
2022-12-08T03:56:04.322Z,9.81
2022-12-08T03:56:46.050Z,10.36
2022-12-08T03:57:26.111Z,10.23
2022-12-08T03:58:06.055Z,9.64
2022-12-08T03:58:47.059Z,9.65
2022-12-08T03:59:27.113Z,10.38
2022-12-08T04:00:07.363Z,10.94
2022-12-08T04:00:48.064Z,10.48
2022-12-08T04:01:29.243Z,11.66
2022-12-08T04:02:09.118Z,12.04
2022-12-08T04:02:49.141Z,12.16
2022-12-08T04:03:30.094Z,12.20
2022-12-08T04:04:11.494Z,12.07
2022-12-08T04:04:51.068Z,12.39
2022-12-08T04:05:31.192Z,13.20
2022-12-08T04:06:12.002Z,10.88
2022-12-08T04:06:52.199Z,12.87
2022-12-08T04:07:32.045Z,12.99
2022-12-08T04:08:12.116Z,12.66
2022-12-08T04:08:52.032Z,12.68
2022-12-08T04:09:32.090Z,12.25
2022-12-08T04:10:13.074Z,13.15
2022-12-08T04:10:53.072Z,12.51
2022-12-08T04:11:33.090Z,11.75
2022-12-08T04:12:14.096Z,11.70
2022-12-08T04:12:55.037Z,12.61
2022-12-08T04:13:36.104Z,13.43
2022-12-08T04:14:17.037Z,12.94
2022-12-08T04:14:57.140Z,12.40
2022-12-08T04:15:37.105Z,12.35
2022-12-08T04:16:27.959Z,11.05
2022-12-08T04:17:09.042Z,11.29
2022-12-08T04:17:50.082Z,12.27
2022-12-08T04:18:30.011Z,12.01
2022-12-08T04:19:10.061Z,10.59
2022-12-08T04:19:50.043Z,11.06
2022-12-08T04:20:30.191Z,12.61
2022-12-08T04:21:10.052Z,11.73
2022-12-08T04:21:50.118Z,10.77
2022-12-08T04:22:31.032Z,11.40
2022-12-08T04:23:12.290Z,10.88
2022-12-08T04:24:00.627Z,12.12
2022-12-08T04:24:41.123Z,12.69
2022-12-08T04:25:21.973Z,12.30
2022-12-08T04:26:02.091Z,12.73
2022-12-08T04:26:42.091Z,10.45
2022-12-08T04:27:22.150Z,12.02
2022-12-08T04:28:03.048Z,12.05
2022-12-08T04:28:43.065Z,13.06
2022-12-08T04:29:23.037Z,13.55
2022-12-08T04:30:03.632Z,13.77
2022-12-08T04:30:43.996Z,14.10
2022-12-08T04:31:24.111Z,14.07
2022-12-08T04:32:05.067Z,15.29
2022-12-08T04:32:47.483Z,14.74
2022-12-08T04:33:28.032Z,15.29
2022-12-08T04:34:08.291Z,15.23
2022-12-08T04:34:48.049Z,15.01
2022-12-08T04:35:28.158Z,13.25
2022-12-08T04:36:10.973Z,13.75
2022-12-08T04:36:51.107Z,14.34
2022-12-08T04:37:32.034Z,14.13
2022-12-08T04:38:12.041Z,14.41
2022-12-08T04:38:51.996Z,13.56
2022-12-08T04:39:32.059Z,14.25
2022-12-08T04:40:12.995Z,14.02
2022-12-08T04:40:53.102Z,15.71
2022-12-08T04:41:34.008Z,15.19
2022-12-08T04:42:14.075Z,15.41
2022-12-08T04:42:54.007Z,14.81
2022-12-08T04:43:34.121Z,15.82
2022-12-08T04:44:14.050Z,16.11
2022-12-08T04:44:54.136Z,14.84
2022-12-08T04:45:34.022Z,14.85
2022-12-08T04:46:15.141Z,15.64
2022-12-08T04:46:55.018Z,16.55
2022-12-08T04:47:35.106Z,16.17
2022-12-08T04:48:19.008Z,15.86
2022-12-08T04:48:59.054Z,14.46
2022-12-08T04:49:39.007Z,15.30
2022-12-08T04:50:19.049Z,14.14
2022-12-08T04:51:00.019Z,12.74
2022-12-08T04:51:40.063Z,12.80
2022-12-08T04:52:20.003Z,12.68
2022-12-08T04:53:00.097Z,12.18
2022-12-08T04:53:46.312Z,12.35
2022-12-08T04:54:27.064Z,12.26
2022-12-08T04:55:07.992Z,12.44
2022-12-08T04:55:51.308Z,11.95
2022-12-08T04:56:31.975Z,12.96
2022-12-08T04:57:12.027Z,12.98
2022-12-08T04:57:52.962Z,13.27
2022-12-08T04:58:33.139Z,12.40
2022-12-08T04:59:13.032Z,12.05
2022-12-08T04:59:53.096Z,13.44
2022-12-08T05:00:33.990Z,13.24
2022-12-08T05:01:14.102Z,14.21
2022-12-08T05:01:54.125Z,14.06
2022-12-08T05:02:34.124Z,13.63
2022-12-08T05:03:15.020Z,14.95
2022-12-08T05:03:55.009Z,14.64
2022-12-08T05:04:35.059Z,14.51
2022-12-08T05:05:16.088Z,15.09
2022-12-08T05:05:57.008Z,14.70
2022-12-08T05:06:37.210Z,14.06
2022-12-08T05:07:18.065Z,14.81
2022-12-08T05:07:58.164Z,14.88
2022-12-08T05:08:40.012Z,14.63
2022-12-08T05:09:20.341Z,14.90
2022-12-08T05:10:01.254Z,13.82
2022-12-08T05:10:43.019Z,13.25
2022-12-08T05:11:22.959Z,13.90
2022-12-08T05:12:03.019Z,14.38
2022-12-08T05:12:42.973Z,14.38
2022-12-08T05:13:23.086Z,14.44
2022-12-08T05:14:02.963Z,12.84
2022-12-08T05:14:43.983Z,13.73
2022-12-08T05:15:25.092Z,12.75
2022-12-08T05:16:13.242Z,12.34
2022-12-08T05:16:54.017Z,12.71
2022-12-08T05:17:34.049Z,13.26
2022-12-08T05:18:14.961Z,13.86
2022-12-08T05:18:55.148Z,13.29
2022-12-08T05:19:36.043Z,12.54
2022-12-08T05:20:17.119Z,12.34
2022-12-08T05:20:57.002Z,12.40
2022-12-08T05:21:37.024Z,12.44
2022-12-08T05:22:16.940Z,11.94
2022-12-08T05:22:57.000Z,12.38
2022-12-08T05:23:36.976Z,12.65
2022-12-08T05:24:18.060Z,11.98
2022-12-08T05:24:57.989Z,12.43
2022-12-08T05:25:38.093Z,12.95
2022-12-08T05:26:17.984Z,11.51
2022-12-08T05:26:57.968Z,11.45
2022-12-08T05:27:37.960Z,11.73
2022-12-08T05:28:40.715Z,12.16
2022-12-08T05:29:18.936Z,14.20
2022-12-08T05:29:59.021Z,12.81
2022-12-08T05:30:38.950Z,11.82
2022-12-08T05:31:28.118Z,12.36
2022-12-08T05:32:21.948Z,12.79
2022-12-08T05:33:16.119Z,12.39
2022-12-08T05:34:09.986Z,10.90
2022-12-08T05:35:03.928Z,10.65
2022-12-08T05:35:58.921Z,10.85
2022-12-08T05:36:46.935Z,11.18
2022-12-08T05:37:21.328Z,11.02
2022-12-08T05:38:07.950Z,10.36
2022-12-08T05:38:42.005Z,11.95
2022-12-08T05:39:28.956Z,11.69
2022-12-08T05:40:03.388Z,11.02
2022-12-08T05:40:50.916Z,12.43
2022-12-08T05:41:26.992Z,13.06
2022-12-08T05:42:06.954Z,12.21
2022-12-08T05:42:47.002Z,11.80
2022-12-08T05:43:27.913Z,12.05
2022-12-08T05:44:08.048Z,13.77
2022-12-08T05:44:47.941Z,11.69
2022-12-08T05:45:28.127Z,11.93
2022-12-08T05:46:09.024Z,12.50
2022-12-08T05:46:49.100Z,11.96
2022-12-08T05:47:35.738Z,13.16
2022-12-08T05:48:16.986Z,12.93
2022-12-08T05:48:57.943Z,11.93
2022-12-08T05:49:39.077Z,12.75
2022-12-08T05:50:18.923Z,12.70
2022-12-08T05:50:59.988Z,12.36
2022-12-08T05:51:39.956Z,12.56
2022-12-08T05:52:20.053Z,13.94
2022-12-08T05:53:00.969Z,14.29
2022-12-08T05:53:40.973Z,13.68
2022-12-08T05:54:20.921Z,14.50
2022-12-08T05:55:01.112Z,15.89
2022-12-08T05:55:40.906Z,15.09
2022-12-08T05:56:21.006Z,14.98
2022-12-08T05:57:00.903Z,15.45
2022-12-08T05:57:41.008Z,16.63
2022-12-08T05:58:27.975Z,18.05
2022-12-08T05:59:07.968Z,18.59
2022-12-08T05:59:47.939Z,16.73
2022-12-08T06:00:27.928Z,18.06
2022-12-08T06:01:07.887Z,17.74
2022-12-08T06:01:48.090Z,19.02
2022-12-08T06:02:28.987Z,18.40
2022-12-08T06:03:09.659Z,18.60
2022-12-08T06:03:49.978Z,18.70
2022-12-08T06:04:29.973Z,19.42
2022-12-08T06:05:10.948Z,17.84
2022-12-08T06:05:53.011Z,17.76
2022-12-08T06:06:34.907Z,17.81
2022-12-08T06:07:16.360Z,17.52
2022-12-08T06:07:56.909Z,18.42
2022-12-08T06:08:36.969Z,17.81
2022-12-08T06:09:19.001Z,17.15
2022-12-08T06:09:59.085Z,17.02
2022-12-08T06:10:38.884Z,18.19
2022-12-08T06:11:27.933Z,16.99
2022-12-08T06:12:08.938Z,15.64
2022-12-08T06:12:48.980Z,16.21
2022-12-08T06:13:28.928Z,16.56
2022-12-08T06:14:08.946Z,17.15
2022-12-08T06:14:48.956Z,18.89
2022-12-08T06:15:28.959Z,16.94
2022-12-08T06:16:12.935Z,16.79
2022-12-08T06:16:54.052Z,16.16
2022-12-08T06:17:34.932Z,17.56
2022-12-08T06:18:16.033Z,16.98
2022-12-08T06:18:56.954Z,16.30
2022-12-08T06:19:36.943Z,17.54
2022-12-08T06:20:16.948Z,19.05
2022-12-08T06:20:56.941Z,20.19
2022-12-08T06:21:37.905Z,19.33
2022-12-08T06:22:17.937Z,21.91
2022-12-08T06:22:57.919Z,22.24
2022-12-08T06:23:37.972Z,22.08
2022-12-08T06:24:17.895Z,22.84
2022-12-08T06:24:57.975Z,22.64
2022-12-08T06:25:37.917Z,23.14
2022-12-08T06:26:20.913Z,24.20
2022-12-08T06:27:00.863Z,22.49
2022-12-08T06:27:40.959Z,21.17
2022-12-08T06:28:20.878Z,20.00
2022-12-08T06:29:00.991Z,17.05
2022-12-08T06:29:40.895Z,17.00
2022-12-08T06:30:23.131Z,16.63
2022-12-08T06:31:03.956Z,16.50
2022-12-08T06:31:45.095Z,16.58
2022-12-08T06:32:27.583Z,15.89
2022-12-08T06:33:07.979Z,14.31
2022-12-08T06:33:48.876Z,12.95
2022-12-08T06:34:28.956Z,14.51
2022-12-08T06:35:09.915Z,14.06
2022-12-08T06:35:50.031Z,12.25
2022-12-08T06:36:33.968Z,12.39
2022-12-08T06:37:27.903Z,13.18
2022-12-08T06:38:21.904Z,13.04
2022-12-08T06:39:15.855Z,12.30
2022-12-08T06:40:09.877Z,12.86
2022-12-08T06:41:11.908Z,14.77
2022-12-08T06:42:17.996Z,16.27
2022-12-08T06:42:51.941Z,15.46
2022-12-08T06:43:39.892Z,17.17
2022-12-08T06:44:14.010Z,16.59
2022-12-08T06:45:01.905Z,17.35
2022-12-08T06:45:36.029Z,18.83
2022-12-08T06:46:25.956Z,19.10
2022-12-08T06:47:00.008Z,19.24
2022-12-08T06:47:39.921Z,19.58
2022-12-08T06:48:20.920Z,18.65
2022-12-08T06:49:00.872Z,17.60
2022-12-08T06:49:44.137Z,17.61
2022-12-08T06:50:24.886Z,16.51
2022-12-08T06:51:13.109Z,17.10
2022-12-08T06:51:53.880Z,15.73
2022-12-08T06:52:39.089Z,15.75
2022-12-08T06:53:25.883Z,15.96
2022-12-08T06:54:06.095Z,18.48
2022-12-08T06:54:45.825Z,18.34
2022-12-08T06:55:51.256Z,14.96
2022-12-08T06:56:26.871Z,16.25
2022-12-08T06:57:07.976Z,17.76
2022-12-08T06:57:47.890Z,16.79
2022-12-08T06:58:35.869Z,14.75
2022-12-08T06:59:29.876Z,14.35
2022-12-08T07:00:24.874Z,14.41
2022-12-08T07:01:24.914Z,15.40
2022-12-08T07:02:19.897Z,17.10
2022-12-08T07:03:13.846Z,17.46
2022-12-08T07:04:00.919Z,16.19
2022-12-08T07:04:35.100Z,18.17
2022-12-08T07:05:21.849Z,19.05
2022-12-08T07:06:05.001Z,18.42
2022-12-08T07:06:45.851Z,18.84
2022-12-08T07:07:25.917Z,20.40
2022-12-08T07:08:05.857Z,19.63
2022-12-08T07:08:45.863Z,18.89
2022-12-08T07:09:25.921Z,19.64
2022-12-08T07:10:10.096Z,20.05
2022-12-08T07:10:49.841Z,19.89
2022-12-08T07:11:30.884Z,17.98
2022-12-08T07:12:11.857Z,17.13
2022-12-08T07:12:52.940Z,17.99
2022-12-08T07:13:33.863Z,18.10
2022-12-08T07:14:15.130Z,18.17
2022-12-08T07:14:54.860Z,19.48
2022-12-08T07:15:36.019Z,21.02
2022-12-08T07:16:18.918Z,21.55
2022-12-08T07:16:59.023Z,21.40
2022-12-08T07:17:38.868Z,22.23
2022-12-08T07:18:18.945Z,23.61
2022-12-08T07:18:58.866Z,24.95
2022-12-08T07:19:39.890Z,27.76
2022-12-08T07:20:19.807Z,26.23
2022-12-08T07:20:59.869Z,25.20
2022-12-08T07:21:39.816Z,27.79
2022-12-08T07:22:19.980Z,30.29
2022-12-08T07:23:00.875Z,28.95
2022-12-08T07:23:42.928Z,30.08
2022-12-08T07:24:23.841Z,29.35
2022-12-08T07:25:04.856Z,29.84
2022-12-08T07:25:44.839Z,30.21
2022-12-08T07:26:26.899Z,26.39
2022-12-08T07:27:07.805Z,26.71
2022-12-08T07:27:48.079Z,27.64
2022-12-08T07:28:28.819Z,32.30
2022-12-08T07:29:10.214Z,28.20
2022-12-08T07:29:50.831Z,27.96
2022-12-08T07:30:30.891Z,28.16
2022-12-08T07:31:11.971Z,28.17
2022-12-08T07:31:52.097Z,25.83
2022-12-08T07:32:32.870Z,25.45
2022-12-08T07:33:12.853Z,27.45
2022-12-08T07:33:53.818Z,27.52
2022-12-08T07:34:34.847Z,26.05
2022-12-08T07:35:15.834Z,23.40
2022-12-08T07:36:07.931Z,24.50
2022-12-08T07:36:47.843Z,24.29
2022-12-08T07:37:29.019Z,25.45
2022-12-08T07:38:09.828Z,25.91
2022-12-08T07:38:50.867Z,23.29
2022-12-08T07:39:30.804Z,24.89
2022-12-08T07:40:14.132Z,23.31
2022-12-08T07:40:54.843Z,24.21
2022-12-08T07:41:34.975Z,24.35
2022-12-08T07:42:14.933Z,25.58
2022-12-08T07:42:54.933Z,26.02
2022-12-08T07:43:34.803Z,29.23
2022-12-08T07:44:17.248Z,25.51
2022-12-08T07:44:57.809Z,23.55
2022-12-08T07:45:37.863Z,24.52
2022-12-08T07:46:27.961Z,27.99
2022-12-08T07:47:07.906Z,31.34
2022-12-08T07:47:54.861Z,27.80
2022-12-08T07:48:28.913Z,24.10
2022-12-08T07:49:15.827Z,23.29
2022-12-08T07:49:49.874Z,24.91
2022-12-08T07:50:36.791Z,25.13
2022-12-08T07:51:13.037Z,26.50
2022-12-08T07:52:01.788Z,28.23
2022-12-08T07:52:35.953Z,27.44
2022-12-08T07:53:15.826Z,27.14
2022-12-08T07:53:58.853Z,26.74
2022-12-08T07:54:38.828Z,27.36
2022-12-08T07:55:18.857Z,27.40
2022-12-08T07:55:59.805Z,27.40
2022-12-08T07:56:42.164Z,27.91
2022-12-08T07:57:22.810Z,27.67
2022-12-08T07:58:02.944Z,26.29
2022-12-08T07:58:43.833Z,27.59
2022-12-08T07:59:23.916Z,28.27
2022-12-08T08:00:04.088Z,27.79
2022-12-08T08:00:44.872Z,28.24
2022-12-08T08:01:36.009Z,28.64
2022-12-08T08:02:26.523Z,27.39
2022-12-08T08:03:07.850Z,26.65
2022-12-08T08:03:54.807Z,25.56
2022-12-08T08:04:48.923Z,27.65
2022-12-08T08:05:43.792Z,28.42
2022-12-08T08:06:38.803Z,25.98
2022-12-08T08:07:34.934Z,26.08
2022-12-08T08:08:29.910Z,26.65
2022-12-08T08:09:16.797Z,24.89
2022-12-08T08:09:50.841Z,25.46
2022-12-08T08:10:38.834Z,25.50
2022-12-08T08:11:20.985Z,26.34
2022-12-08T08:12:30.131Z,25.86
2022-12-08T08:13:05.897Z,23.88
2022-12-08T08:13:56.836Z,23.99
2022-12-08T08:14:37.884Z,23.65
2022-12-08T08:15:31.996Z,24.44
2022-12-08T08:16:25.938Z,25.21
2022-12-08T08:17:19.864Z,23.64
2022-12-08T08:18:16.770Z,23.99
2022-12-08T08:19:10.830Z,24.33
2022-12-08T08:19:58.785Z,26.91
2022-12-08T08:20:32.851Z,25.64
2022-12-08T08:22:15.929Z,23.33
2022-12-08T08:23:02.808Z,22.05
2022-12-08T08:23:36.904Z,21.19
2022-12-08T08:24:27.767Z,22.46
2022-12-08T08:25:08.787Z,22.80
2022-12-08T08:26:03.770Z,21.29
2022-12-08T08:26:59.795Z,20.83
2022-12-08T08:27:54.825Z,20.24
2022-12-08T08:28:52.793Z,20.41
2022-12-08T08:29:46.827Z,21.92
2022-12-08T08:30:33.805Z,24.38
2022-12-08T08:31:08.907Z,24.79
2022-12-08T08:31:56.755Z,22.76
2022-12-08T08:32:30.827Z,23.30
2022-12-08T08:33:17.818Z,22.90
2022-12-08T08:33:52.106Z,22.92
2022-12-08T08:34:38.792Z,23.11
2022-12-08T08:35:15.362Z,24.94
2022-12-08T08:35:58.061Z,26.84
2022-12-08T08:36:39.821Z,26.65
2022-12-08T08:37:20.833Z,23.69
2022-12-08T08:38:00.829Z,23.92
2022-12-08T08:38:42.838Z,22.77
2022-12-08T08:39:22.821Z,22.35
2022-12-08T08:40:03.209Z,24.15
2022-12-08T08:40:43.916Z,23.56
2022-12-08T08:41:24.815Z,22.05
2022-12-08T08:42:18.797Z,20.04
2022-12-08T08:43:16.003Z,19.90
2022-12-08T08:44:09.819Z,19.10
2022-12-08T08:45:03.752Z,18.33
2022-12-08T08:45:57.793Z,18.35
2022-12-08T08:46:44.942Z,18.60
2022-12-08T08:47:18.901Z,18.79
2022-12-08T08:48:06.726Z,18.58
2022-12-08T08:48:40.926Z,17.97
2022-12-08T08:49:27.859Z,18.59
2022-12-08T08:50:02.135Z,19.05
2022-12-08T08:50:49.737Z,22.39
2022-12-08T08:51:26.202Z,21.38
2022-12-08T08:52:06.765Z,22.06
2022-12-08T08:52:47.791Z,22.45
2022-12-08T08:53:28.750Z,21.51
2022-12-08T08:54:08.827Z,19.45
2022-12-08T08:54:48.765Z,18.74
2022-12-08T08:55:29.918Z,21.55
2022-12-08T08:56:11.729Z,22.67
2022-12-08T08:56:52.844Z,22.94
2022-12-08T08:57:33.776Z,24.25
2022-12-08T08:58:14.851Z,22.89
2022-12-08T08:58:56.736Z,20.67
2022-12-08T08:59:36.783Z,20.00
2022-12-08T09:00:18.824Z,20.77
2022-12-08T09:00:58.840Z,20.05
2022-12-08T09:01:38.847Z,18.67
2022-12-08T09:02:25.883Z,18.19
2022-12-08T09:03:06.747Z,19.19
2022-12-08T09:03:46.858Z,17.61
2022-12-08T09:04:28.748Z,16.75
2022-12-08T09:05:08.903Z,16.61
2022-12-08T09:05:48.757Z,17.33
2022-12-08T09:06:29.799Z,16.74
2022-12-08T09:07:09.747Z,17.73
2022-12-08T09:07:49.803Z,17.83
2022-12-08T09:08:30.990Z,17.06
2022-12-08T09:09:11.870Z,17.30
2022-12-08T09:09:53.188Z,17.10
2022-12-08T09:10:37.511Z,17.64
2022-12-08T09:11:19.713Z,17.21
2022-12-08T09:12:00.778Z,19.49
2022-12-08T09:12:41.706Z,18.98
2022-12-08T09:13:22.452Z,17.70
2022-12-08T09:14:02.745Z,18.31
2022-12-08T09:14:42.794Z,18.84
2022-12-08T09:15:23.746Z,17.31
2022-12-08T09:16:03.843Z,18.10
2022-12-08T09:16:44.786Z,19.33
2022-12-08T09:17:24.812Z,18.39
2022-12-08T09:18:07.692Z,17.21
2022-12-08T09:18:49.415Z,17.70
2022-12-08T09:19:30.750Z,17.44
2022-12-08T09:20:14.909Z,17.52
2022-12-08T09:20:55.736Z,17.84
2022-12-08T09:21:38.121Z,17.30
2022-12-08T09:22:17.700Z,17.63
2022-12-08T09:22:57.751Z,15.40
2022-12-08T09:23:37.758Z,16.42
2022-12-08T09:24:17.757Z,16.42
2022-12-08T09:24:57.723Z,16.86
2022-12-08T09:25:37.807Z,16.74
2022-12-08T09:26:18.708Z,15.94
2022-12-08T09:26:58.772Z,14.85
2022-12-08T09:27:38.704Z,16.31
2022-12-08T09:28:19.763Z,15.30
2022-12-08T09:29:01.664Z,15.46
2022-12-08T09:29:41.753Z,15.63
2022-12-08T09:30:22.822Z,14.14
2022-12-08T09:31:03.761Z,15.31
2022-12-08T09:31:44.729Z,15.09
2022-12-08T09:32:26.775Z,16.65
2022-12-08T09:33:06.727Z,16.30
2022-12-08T09:33:47.524Z,17.15
2022-12-08T09:34:27.746Z,17.11
2022-12-08T09:35:08.739Z,15.86
2022-12-08T09:35:48.729Z,16.20